createdAt,value
2022-10-14T00:02:19.458Z,2.90
2022-10-14T00:07:20.048Z,2.88
2022-10-14T00:12:18.994Z,2.60
2022-10-14T00:17:17.898Z,2.58
2022-10-14T00:22:17.667Z,2.05
2022-10-14T00:27:18.123Z,2.25
2022-10-14T00:32:17.524Z,3.42
2022-10-14T00:37:16.321Z,2.10
2022-10-14T00:42:17.461Z,2.78
2022-10-14T00:47:16.402Z,2.47
2022-10-14T00:52:17.938Z,2.53
2022-10-14T00:57:19.088Z,3.85
2022-10-14T01:02:18.238Z,3.35
2022-10-14T01:07:25.486Z,2.65
2022-10-14T01:12:34.584Z,2.50
2022-10-14T01:17:49.564Z,2.42
2022-10-14T01:22:59.548Z,2.75
2022-10-14T01:28:24.418Z,2.28
2022-10-14T01:33:27.963Z,2.38
2022-10-14T01:38:32.137Z,2.45
2022-10-14T01:43:35.349Z,2.75
2022-10-14T01:48:38.314Z,3.08
2022-10-14T01:58:40.890Z,2.80
2022-10-14T02:03:43.218Z,2.30
2022-10-14T02:08:56.377Z,2.03
2022-10-14T02:14:12.264Z,2.67
2022-10-14T02:19:24.856Z,2.75
2022-10-14T02:24:28.272Z,2.58
2022-10-14T02:29:29.006Z,3.17
2022-10-14T02:34:29.552Z,2.15
2022-10-14T02:39:32.589Z,5.45
2022-10-14T02:44:31.556Z,2.92
2022-10-14T02:49:31.876Z,2.42
2022-10-14T02:54:31.731Z,2.30
2022-10-14T02:59:30.669Z,3.20
2022-10-14T03:04:31.529Z,2.30
2022-10-14T03:09:30.418Z,2.33
2022-10-14T03:14:33.610Z,1.98
2022-10-14T03:19:35.718Z,2.33
2022-10-14T03:24:34.917Z,1.75
2022-10-14T03:29:53.044Z,2.03
2022-10-14T03:39:56.926Z,9.10
2022-10-14T03:44:56.604Z,2.75
2022-10-14T03:55:11.341Z,2.83
2022-10-14T04:00:14.621Z,2.47
2022-10-14T04:05:15.245Z,2.50
2022-10-14T04:10:16.991Z,1.80
2022-10-14T04:15:22.816Z,2.35
2022-10-14T04:20:38.630Z,2.25
2022-10-14T04:25:39.513Z,2.67
2022-10-14T04:30:39.312Z,2.45
2022-10-14T04:35:42.559Z,3.22
2022-10-14T04:40:49.891Z,4.57
2022-10-14T04:45:49.054Z,2.67
2022-10-14T04:50:56.729Z,3.38
2022-10-14T04:56:10.041Z,2.83
2022-10-14T05:01:14.806Z,4.47
2022-10-14T05:06:16.161Z,5.43
2022-10-14T05:11:16.808Z,4.07
2022-10-14T05:16:22.325Z,6.68
2022-10-14T05:21:22.470Z,4.43
2022-10-14T05:26:28.282Z,3.13
2022-10-14T05:31:30.370Z,3.47
2022-10-14T05:36:51.781Z,7.10
2022-10-14T05:41:52.847Z,5.82
2022-10-14T05:46:56.202Z,4.85
2022-10-14T05:51:58.448Z,6.30
2022-10-14T05:56:58.374Z,7.22
2022-10-14T06:02:29.512Z,8.30
2022-10-14T06:07:31.560Z,7.00
2022-10-14T06:12:33.004Z,6.77
2022-10-14T06:17:33.120Z,7.38
2022-10-14T06:22:33.612Z,7.97
2022-10-14T06:27:32.880Z,7.20
2022-10-14T06:32:32.268Z,6.65
2022-10-14T06:37:31.444Z,7.82
2022-10-14T06:42:33.810Z,6.78
2022-10-14T06:47:33.727Z,5.10
2022-10-14T06:52:35.623Z,4.82
2022-10-14T06:57:35.913Z,5.05
2022-10-14T07:02:34.839Z,5.95
2022-10-14T07:07:52.018Z,5.88
2022-10-14T07:12:56.259Z,7.13
2022-10-14T07:17:55.278Z,5.78
2022-10-14T07:22:56.987Z,7.72
2022-10-14T07:27:57.421Z,6.90
2022-10-14T07:32:56.614Z,9.07
2022-10-14T07:37:56.414Z,9.63
2022-10-14T07:42:57.472Z,9.50
2022-10-14T07:47:56.229Z,10.80
2022-10-14T07:52:58.889Z,10.30
2022-10-14T07:58:01.083Z,11.82
2022-10-14T08:02:59.974Z,11.48
2022-10-14T08:07:58.776Z,10.88
2022-10-14T08:12:58.386Z,12.00
2022-10-14T08:18:01.483Z,11.35
2022-10-14T08:23:00.849Z,11.63
2022-10-14T08:28:00.086Z,10.43
2022-10-14T08:33:00.774Z,10.32
2022-10-14T08:38:12.819Z,9.98
2022-10-14T08:43:23.261Z,10.00
2022-10-14T08:48:29.595Z,9.02
2022-10-14T08:53:34.718Z,8.65
2022-10-14T08:58:36.034Z,7.60
2022-10-14T09:03:37.108Z,5.60
2022-10-14T09:08:42.292Z,6.63
2022-10-14T09:13:43.958Z,6.47
2022-10-14T09:18:53.835Z,4.68
2022-10-14T09:24:00.154Z,5.03
2022-10-14T09:28:59.695Z,5.20
2022-10-14T09:34:26.377Z,6.65
2022-10-14T09:39:26.061Z,5.50
2022-10-14T09:44:28.267Z,5.55
2022-10-14T09:49:36.031Z,5.53
2022-10-14T09:54:35.980Z,5.22
2022-10-14T09:59:39.534Z,5.00
2022-10-14T10:04:47.192Z,3.75
2022-10-14T10:09:55.448Z,3.80
2022-10-14T10:14:58.909Z,4.18
2022-10-14T10:20:20.268Z,5.72
2022-10-14T10:30:25.862Z,3.40
2022-10-14T10:35:40.233Z,4.47
2022-10-14T10:40:42.707Z,4.32
2022-10-14T10:45:57.821Z,4.45
2022-10-14T10:51:03.726Z,2.95
2022-10-14T10:56:18.626Z,3.80
2022-10-14T11:01:37.371Z,3.85
2022-10-14T11:07:18.178Z,3.22
2022-10-14T11:12:24.581Z,4.15
2022-10-14T11:17:30.063Z,4.10
2022-10-14T11:22:46.198Z,3.25
2022-10-14T11:27:52.239Z,3.17
2022-10-14T11:33:06.682Z,3.00
2022-10-14T11:38:21.044Z,2.72
2022-10-14T11:43:27.912Z,3.15
2022-10-14T11:48:38.620Z,3.40
2022-10-14T11:53:54.837Z,3.40
2022-10-14T11:59:14.350Z,3.00
2022-10-14T12:04:28.737Z,3.13
2022-10-14T12:09:41.532Z,3.15
2022-10-14T12:14:44.906Z,2.55
2022-10-14T12:19:46.783Z,2.53
2022-10-14T12:24:51.187Z,2.78
2022-10-14T12:29:52.272Z,2.65
2022-10-14T12:34:53.905Z,2.72
2022-10-14T12:39:58.120Z,2.42
2022-10-14T12:45:01.684Z,2.75
2022-10-14T12:50:03.675Z,3.80
2022-10-14T12:55:13.324Z,3.28
2022-10-14T13:00:33.768Z,3.15
2022-10-14T13:05:37.304Z,3.20
2022-10-14T13:11:11.151Z,3.67
2022-10-14T13:16:10.734Z,3.80
2022-10-14T13:21:12.109Z,3.78
2022-10-14T13:26:36.536Z,4.40
2022-10-14T13:31:43.657Z,3.72
2022-10-14T13:36:58.028Z,3.40
2022-10-14T13:42:00.623Z,3.25
2022-10-14T13:47:13.535Z,4.13
2022-10-14T13:52:20.146Z,3.72
2022-10-14T14:02:49.044Z,4.25
2022-10-14T14:08:30.608Z,3.05
2022-10-14T14:13:27.750Z,3.22
2022-10-14T14:18:56.241Z,4.45
2022-10-14T14:24:02.536Z,2.95
2022-10-14T14:29:06.125Z,3.03
2022-10-14T14:34:06.680Z,2.72
2022-10-14T14:39:07.067Z,2.53
2022-10-14T14:44:24.641Z,2.00
2022-10-14T14:49:39.495Z,3.10
2022-10-14T14:54:46.026Z,2.25
2022-10-14T14:59:57.884Z,2.55
2022-10-14T15:05:12.458Z,3.05
2022-10-14T15:10:24.511Z,2.60
2022-10-14T15:15:31.143Z,2.90
2022-10-14T15:20:32.642Z,2.95
2022-10-14T15:25:32.572Z,3.50
2022-10-14T15:30:39.117Z,3.47
2022-10-14T15:35:43.839Z,3.72
2022-10-14T15:40:47.806Z,3.58
2022-10-14T15:46:13.592Z,5.05
2022-10-14T15:51:21.121Z,3.47
2022-10-14T15:56:21.263Z,3.67
2022-10-14T16:02:01.137Z,4.10
2022-10-14T16:07:04.098Z,4.10
2022-10-14T16:12:03.248Z,3.90
2022-10-14T16:17:04.585Z,4.30
2022-10-14T16:22:05.954Z,4.88
2022-10-14T16:27:06.069Z,3.70
2022-10-14T16:32:11.154Z,4.00
2022-10-14T16:37:17.264Z,4.13
2022-10-14T16:42:19.868Z,4.72
2022-10-14T16:52:21.416Z,4.93
2022-10-14T16:57:20.822Z,4.63
2022-10-14T17:02:22.838Z,5.07
2022-10-14T17:07:24.527Z,5.03
2022-10-14T17:12:24.009Z,5.07
2022-10-14T17:17:25.362Z,4.55
2022-10-14T17:22:25.284Z,4.13
2022-10-14T17:27:26.978Z,3.83
2022-10-14T17:32:30.712Z,5.68
2022-10-14T17:37:32.931Z,4.80
2022-10-14T17:42:35.249Z,6.80
2022-10-14T17:47:47.450Z,5.27
2022-10-14T17:53:12.414Z,6.03
2022-10-14T17:58:13.414Z,4.43
2022-10-14T18:03:16.169Z,4.82
2022-10-14T18:08:19.174Z,4.65
2022-10-14T18:13:18.664Z,5.05
2022-10-14T18:18:19.252Z,4.40
2022-10-14T18:23:18.827Z,5.65
2022-10-14T18:28:19.929Z,5.43
2022-10-14T18:33:29.710Z,4.60
2022-10-14T18:38:28.916Z,4.28
2022-10-14T18:43:29.624Z,3.70
2022-10-14T18:48:30.059Z,3.33
2022-10-14T18:53:31.419Z,2.70
2022-10-14T18:58:30.700Z,2.70
2022-10-14T19:03:31.868Z,3.08
2022-10-14T19:08:30.810Z,2.70
2022-10-14T19:13:29.991Z,2.53
2022-10-14T19:18:30.364Z,2.40
2022-10-14T19:23:29.912Z,2.78
2022-10-14T19:28:28.824Z,2.42
2022-10-14T19:33:27.883Z,2.60
2022-10-14T19:38:28.594Z,2.95
2022-10-14T19:43:31.707Z,2.08
2022-10-14T19:48:31.250Z,3.03
2022-10-14T19:53:32.148Z,2.08
2022-10-14T19:58:31.219Z,2.42
2022-10-14T20:03:30.285Z,2.35
2022-10-14T20:08:31.352Z,2.50
2022-10-14T20:13:31.484Z,3.17
2022-10-14T20:18:45.885Z,2.80
2022-10-14T20:23:48.591Z,2.95
2022-10-14T20:28:52.342Z,2.97
2022-10-14T20:33:51.683Z,4.53
2022-10-14T20:38:53.266Z,3.55
2022-10-14T20:43:55.300Z,2.55
2022-10-14T20:48:58.383Z,2.90
2022-10-14T20:54:03.750Z,3.03
2022-10-14T20:59:06.128Z,2.75
2022-10-14T21:04:08.994Z,2.73
2022-10-14T21:09:15.478Z,2.90
2022-10-14T21:14:14.874Z,3.45
2022-10-14T21:19:16.362Z,3.30
2022-10-14T21:24:17.728Z,3.80
2022-10-14T21:29:17.294Z,2.15
2022-10-14T21:34:17.111Z,2.35
2022-10-14T21:39:20.885Z,2.92
2022-10-14T21:44:25.420Z,2.13
2022-10-14T21:49:24.704Z,3.92
2022-10-14T21:54:26.491Z,3.05
2022-10-14T21:59:26.027Z,3.35
2022-10-14T22:04:26.400Z,2.95
2022-10-14T22:09:26.940Z,2.97
2022-10-14T22:14:26.243Z,3.25
2022-10-14T22:19:25.330Z,2.70
2022-10-14T22:24:24.896Z,3.35
2022-10-14T22:29:26.057Z,3.00
2022-10-14T22:34:25.086Z,3.30
2022-10-14T22:39:24.193Z,3.10
2022-10-14T22:44:23.532Z,2.97
2022-10-14T22:49:24.129Z,3.45
2022-10-14T22:54:23.241Z,3.58
2022-10-14T22:59:22.101Z,3.70
2022-10-14T23:04:21.138Z,3.03
2022-10-14T23:09:21.671Z,3.42
2022-10-14T23:14:21.677Z,3.97
2022-10-14T23:19:24.291Z,3.85
2022-10-14T23:24:25.520Z,3.70
2022-10-14T23:29:24.458Z,3.10
2022-10-14T23:34:23.498Z,3.60
2022-10-14T23:39:22.447Z,2.90
2022-10-14T23:44:22.912Z,2.30
2022-10-14T23:49:25.913Z,3.38
2022-10-14T23:59:25.215Z,2.28
